Time;durP1;ratioP1;P1;durP2;ratioP2;P2;SDS_P1;SDS_P2;PMS_P1;PMS_P2;Temp;Humidity;BMP_temperature;BMP_pressure;BME280_temperature;BME280_humidity;BME280_pressure;Samples;Min_cycle;Max_cycle;Signal;HPM_P1;HPM_P2
2022/06/20 00:00:39;;;;;;;;;;;;;;;14.50;73.62;101399.50;5021878;28;19921;-74
2022/06/20 00:03:04;;;;;;;;;;;;;;;14.49;73.82;101397.84;5031046;28;19928;-74
2022/06/20 00:05:31;;;;;;;;;;;;;;;14.45;73.90;101410.06;5031761;28;20027;-74
2022/06/20 00:07:56;;;;;;;;;;;;;;;14.42;74.24;101410.47;5016734;28;20225;-74
2022/06/20 00:10:23;;;;;;;;;;;;;;;14.40;74.54;101409.81;5019372;28;19923;-74
2022/06/20 00:12:48;;;;;;;;;;;;;;;14.43;74.57;101417.59;5026469;28;20301;-75
2022/06/20 00:15:40;;;;;;;;;;;;;;;14.41;74.67;101415.06;5024212;28;20012;-75
2022/06/20 00:18:06;;;;;;;;;;;;;;;14.42;74.62;101424.00;5016224;28;20020;-73
2022/06/20 00:20:31;;;;;;;;;;;;;;;14.35;74.85;101426.66;5012750;28;19991;-74
2022/06/20 00:22:57;;;;;;;;;;;;;;;14.40;74.45;101428.78;5022707;28;20275;-75
2022/06/20 00:25:22;;;;;;;;;;;;;;;14.39;74.27;101421.69;5030009;28;19973;-75
2022/06/20 00:27:48;;;;;;;;;;;;;;;14.40;73.71;101437.75;5020591;28;20028;-75
2022/06/20 00:30:14;;;;;;;;;;;;;;;14.35;73.66;101436.63;5024419;28;20377;-74
2022/06/20 00:32:39;;;;;;;;;;;;;;;14.35;73.75;101433.94;5015010;28;19925;-74
2022/06/20 00:35:04;;;;;;;;;;;;;;;14.24;73.73;101449.69;5016233;28;19922;-75
2022/06/20 00:37:30;;;;;;;;;;;;;;;14.27;73.92;101448.47;5011127;28;19922;-76
2022/06/20 00:39:55;;;;;;;;;;;;;;;14.23;73.45;101449.84;5010252;28;19924;-74
2022/06/20 00:42:20;;;;;;;;;;;;;;;14.19;73.25;101446.69;5010454;28;20016;-74
2022/06/20 00:44:47;;;;;;;;;;;;;;;14.16;73.42;101449.75;5020453;28;19921;-74
2022/06/20 00:47:14;;;;;;;;;;;;;;;14.18;73.16;101453.13;5026147;28;19925;-74
2022/06/20 00:49:49;;;;;;;;;;;;;;;14.12;72.96;101437.66;5010360;28;20016;-74
2022/06/20 00:52:15;;;;;;;;;;;;;;;14.09;72.97;101442.63;5011697;28;19921;-75
2022/06/20 00:54:44;;;;;;;;;;;;;;;14.04;72.66;101449.44;5019871;28;19921;-74
2022/06/20 00:57:09;;;;;;;;;;;;;;;13.98;72.93;101457.47;5020107;28;19925;-75
2022/06/20 00:59:36;;;;;;;;;;;;;;;13.92;73.02;101460.94;5024112;28;19927;-75
2022/06/20 01:02:02;;;;;;;;;;;;;;;13.90;72.84;101466.56;5029024;28;19925;-75
2022/06/20 01:04:33;;;;;;;;;;;;;;;13.92;72.71;101488.81;5014903;28;19943;-75
2022/06/20 01:06:59;;;;;;;;;;;;;;;13.94;72.62;101478.66;5023491;28;19995;-73
2022/06/20 01:09:25;;;;;;;;;;;;;;;13.95;72.46;101483.03;5009264;28;20380;-74
2022/06/20 01:11:52;;;;;;;;;;;;;;;13.95;72.78;101490.31;5022387;28;20032;-75
2022/06/20 01:14:22;;;;;;;;;;;;;;;13.95;73.09;101504.69;5030508;28;20349;-74
2022/06/20 01:16:47;;;;;;;;;;;;;;;13.98;72.86;101517.00;5025739;28;19921;-75
2022/06/20 01:19:13;;;;;;;;;;;;;;;14.03;72.92;101522.69;5009826;28;20150;-76
2022/06/20 01:21:38;;;;;;;;;;;;;;;14.10;72.69;101531.75;5010112;28;19930;-73
2022/06/20 01:24:33;;;;;;;;;;;;;;;14.15;72.52;101515.78;5014923;28;20090;-73
2022/06/20 01:27:13;;;;;;;;;;;;;;;14.21;72.12;101512.31;5019535;28;19929;-73
2022/06/20 01:29:38;;;;;;;;;;;;;;;14.33;71.66;101501.00;5009482;28;19918;-74
2022/06/20 01:32:04;;;;;;;;;;;;;;;14.39;71.29;101487.53;5017498;28;20221;-74
2022/06/20 01:34:29;;;;;;;;;;;;;;;14.40;71.33;101493.78;5028822;28;19983;-73
2022/06/20 01:39:40;;;;;;;;;;;;;;;14.38;71.06;101490.44;5010916;28;19971;-73
2022/06/20 01:42:21;;;;;;;;;;;;;;;14.41;70.85;101479.22;5015462;28;19924;-74
2022/06/20 01:44:46;;;;;;;;;;;;;;;14.41;70.71;101474.63;5030229;28;19921;-74
2022/06/20 01:47:12;;;;;;;;;;;;;;;14.39;70.81;101479.41;5023315;28;19928;-74
2022/06/20 01:49:37;;;;;;;;;;;;;;;14.45;70.51;101486.75;5009540;28;19921;-74
2022/06/20 01:52:07;;;;;;;;;;;;;;;14.41;70.11;101485.47;5015337;28;20052;-73
2022/06/20 01:54:34;;;;;;;;;;;;;;;14.39;69.79;101475.84;5018668;28;19921;-73
2022/06/20 01:56:59;;;;;;;;;;;;;;;14.41;69.18;101471.09;5024344;28;20370;-73
2022/06/20 01:59:26;;;;;;;;;;;;;;;14.37;68.70;101472.50;5009452;28;19925;-73
2022/06/20 02:01:51;;;;;;;;;;;;;;;14.35;68.35;101472.72;5010710;28;19922;-73
2022/06/20 02:04:17;;;;;;;;;;;;;;;14.27;68.37;101481.78;5015906;28;19924;-73
2022/06/20 02:06:42;;;;;;;;;;;;;;;14.17;68.45;101483.94;5018540;28;19921;-73
2022/06/20 02:09:09;;;;;;;;;;;;;;;14.16;68.80;101466.00;5016889;28;19931;-73
2022/06/20 02:11:35;;;;;;;;;;;;;;;14.15;68.60;101468.91;5013559;28;19964;-74
2022/06/20 02:14:02;;;;;;;;;;;;;;;14.13;68.64;101455.56;5017046;28;19929;-74
2022/06/20 02:16:28;;;;;;;;;;;;;;;14.05;68.84;101452.97;5039140;28;19968;-74
2022/06/20 02:18:53;;;;;;;;;;;;;;;14.04;69.02;101456.72;5025294;28;19960;-74
2022/06/20 02:21:20;;;;;;;;;;;;;;;13.99;69.46;101467.28;5033951;28;19920;-75
2022/06/20 02:23:46;;;;;;;;;;;;;;;13.91;69.76;101470.91;5034355;28;20016;-75
2022/06/20 02:26:11;;;;;;;;;;;;;;;13.91;70.26;101467.38;5019752;28;20411;-74
2022/06/20 02:28:38;;;;;;;;;;;;;;;13.94;69.74;101456.19;5012639;28;19922;-75
2022/06/20 02:31:03;;;;;;;;;;;;;;;13.98;69.64;101452.03;5025671;28;19928;-75
2022/06/20 02:33:28;;;;;;;;;;;;;;;14.00;69.54;101444.59;5075238;22;19925;-31
2022/06/20 02:35:54;;;;;;;;;;;;;;;13.98;69.38;101447.50;5037582;28;19932;-32
2022/06/20 02:38:21;;;;;;;;;;;;;;;13.88;69.57;101451.53;5036494;28;19921;-31
2022/06/20 02:40:47;;;;;;;;;;;;;;;13.77;70.03;101466.34;5036218;28;19917;-30
2022/06/20 02:43:13;;;;;;;;;;;;;;;13.72;70.46;101461.53;5027613;28;19928;-31
2022/06/20 02:45:38;;;;;;;;;;;;;;;13.72;70.75;101468.81;5037635;28;19968;-34
2022/06/20 02:48:05;;;;;;;;;;;;;;;13.71;70.89;101457.13;5035666;28;19953;-34
2022/06/20 02:50:32;;;;;;;;;;;;;;;13.71;71.07;101457.13;5035869;28;19921;-34
2022/06/20 02:52:59;;;;;;;;;;;;;;;13.67;71.34;101457.69;5035843;28;19917;-33
2022/06/20 02:55:24;;;;;;;;;;;;;;;13.75;71.37;101458.44;5019262;28;20016;-33
2022/06/20 02:57:51;;;;;;;;;;;;;;;13.77;71.29;101445.56;5036635;28;19985;-32
2022/06/20 03:00:18;;;;;;;;;;;;;;;13.69;71.30;101448.38;5035677;28;20360;-33
2022/06/20 03:02:45;;;;;;;;;;;;;;;13.59;71.97;101447.81;5031246;28;19960;-31
2022/06/20 03:05:12;;;;;;;;;;;;;;;13.57;72.44;101450.69;5035491;28;19924;-31
2022/06/20 03:07:39;;;;;;;;;;;;;;;13.56;72.74;101448.16;5037099;28;19957;-31
2022/06/20 03:10:16;;;;;;;;;;;;;;;13.60;72.49;101447.63;5036552;28;19924;-32
2022/06/20 03:12:42;;;;;;;;;;;;;;;13.56;72.68;101445.47;5025988;28;19925;-33
2022/06/20 03:15:07;;;;;;;;;;;;;;;13.53;72.94;101453.94;5036656;28;20402;-33
2022/06/20 03:17:32;;;;;;;;;;;;;;;13.47;72.93;101443.88;5036118;28;19924;-32
2022/06/20 03:19:58;;;;;;;;;;;;;;;13.44;72.96;101434.28;5035238;28;19917;-35
2022/06/20 03:22:26;;;;;;;;;;;;;;;13.45;72.79;101440.53;5036361;28;19928;-31
2022/06/20 03:24:51;;;;;;;;;;;;;;;13.47;73.03;101439.31;5034962;28;19943;-31
2022/06/20 03:27:20;;;;;;;;;;;;;;;13.44;72.79;101447.81;5034917;28;19917;-32
2022/06/20 03:29:45;;;;;;;;;;;;;;;13.45;73.02;101444.06;5034917;28;20422;-31
2022/06/20 03:32:10;;;;;;;;;;;;;;;13.43;72.78;101439.88;5034207;28;19921;-32
2022/06/20 03:34:36;;;;;;;;;;;;;;;13.38;73.14;101446.69;5036429;28;19960;-33
2022/06/20 03:37:02;;;;;;;;;;;;;;;13.37;73.34;101441.44;5036194;28;19972;-33
2022/06/20 03:39:28;;;;;;;;;;;;;;;13.35;73.45;101441.66;5023054;28;19921;-31
2022/06/20 03:41:53;;;;;;;;;;;;;;;13.34;73.86;101439.97;5015930;28;19987;-33
2022/06/20 03:44:21;;;;;;;;;;;;;;;13.43;73.47;101442.56;5015046;28;19960;-32
2022/06/20 03:46:49;;;;;;;;;;;;;;;13.44;73.27;101444.28;5016209;28;19921;-31
2022/06/20 03:49:20;;;;;;;;;;;;;;;13.48;73.01;101445.56;5032444;28;19921;-33
2022/06/20 03:51:46;;;;;;;;;;;;;;;13.50;72.73;101443.50;5031713;28;19976;-32
2022/06/20 03:54:16;;;;;;;;;;;;;;;13.50;72.74;101447.06;5022785;28;19959;-31
2022/06/20 03:56:45;;;;;;;;;;;;;;;13.51;72.72;101437.09;5017907;28;19972;-34
2022/06/20 03:59:28;;;;;;;;;;;;;;;13.50;72.71;101449.75;5034440;28;19928;-31
2022/06/20 04:02:01;;;;;;;;;;;;;;;13.50;72.05;101451.63;5019380;28;19925;-32
2022/06/20 04:04:53;;;;;;;;;;;;;;;13.52;71.86;101452.28;5023261;28;19921;-34
2022/06/20 04:07:21;;;;;;;;;;;;;;;13.56;71.67;101461.69;5002001;28;19922;-32
2022/06/20 04:12:35;;;;;;;;;;;;;;;13.65;71.64;101462.47;5014787;28;19928;-31
2022/06/20 04:15:07;;;;;;;;;;;;;;;13.70;71.73;101458.16;5021268;28;19928;-31
2022/06/20 04:20:31;;;;;;;;;;;;;;;13.86;71.10;101461.69;5016002;28;20390;-33
2022/06/20 04:22:56;;;;;;;;;;;;;;;13.99;71.33;101454.56;5005339;28;19928;-32
2022/06/20 04:25:28;;;;;;;;;;;;;;;14.12;71.14;101467.44;5030532;28;20004;-32
2022/06/20 04:27:58;;;;;;;;;;;;;;;14.18;71.28;101472.06;5034362;28;20116;-33
2022/06/20 04:30:50;;;;;;;;;;;;;;;14.27;70.78;101468.25;5029893;28;19924;-32
2022/06/20 04:33:16;;;;;;;;;;;;;;;14.38;70.37;101474.19;5014663;28;20351;-31
2022/06/20 04:36:02;;;;;;;;;;;;;;;14.44;70.19;101468.00;5033364;28;19917;-32
2022/06/20 04:38:30;;;;;;;;;;;;;;;14.48;70.20;101474.69;5033779;28;19920;-31
2022/06/20 04:41:03;;;;;;;;;;;;;;;14.56;70.09;101471.91;5024828;28;20288;-31
2022/06/20 04:43:37;;;;;;;;;;;;;;;14.59;69.40;101481.53;5014655;28;20016;-32
2022/06/20 04:46:21;;;;;;;;;;;;;;;14.69;69.46;101480.19;5031324;28;20351;-34
2022/06/20 04:48:46;;;;;;;;;;;;;;;14.68;68.98;101475.78;4995933;28;20358;-31
2022/06/20 04:51:13;;;;;;;;;;;;;;;14.78;69.12;101477.34;5016898;28;19921;-31
2022/06/20 04:53:39;;;;;;;;;;;;;;;14.80;69.10;101473.41;5020490;28;20353;-32
2022/06/20 04:56:05;;;;;;;;;;;;;;;14.87;68.96;101474.28;5012749;28;20468;-31
2022/06/20 04:58:34;;;;;;;;;;;;;;;14.90;68.88;101478.47;5013276;28;19924;-35
2022/06/20 05:00:59;;;;;;;;;;;;;;;14.96;68.82;101477.69;5019495;28;19921;-33
2022/06/20 05:03:26;;;;;;;;;;;;;;;15.02;68.47;101476.91;5018146;28;20343;-35
2022/06/20 05:05:51;;;;;;;;;;;;;;;15.08;67.23;101475.28;5012781;28;19917;-34
2022/06/20 05:08:18;;;;;;;;;;;;;;;15.17;66.74;101473.28;5018797;28;19936;-33
2022/06/20 05:10:47;;;;;;;;;;;;;;;15.33;65.83;101483.84;5022379;28;19925;-36
2022/06/20 05:13:20;;;;;;;;;;;;;;;15.33;64.84;101479.25;5014995;28;19960;-32
2022/06/20 05:15:46;;;;;;;;;;;;;;;15.38;64.92;101494.94;5029460;28;20388;-32
2022/06/20 05:18:30;;;;;;;;;;;;;;;15.38;64.91;101481.38;5030222;28;19932;-32
2022/06/20 05:21:03;;;;;;;;;;;;;;;15.45;65.14;101487.66;5013740;28;19913;-31
2022/06/20 05:23:38;;;;;;;;;;;;;;;15.51;64.51;101481.47;5013697;28;19918;-32
2022/06/20 05:26:04;;;;;;;;;;;;;;;15.47;64.09;101482.88;5015791;28;19928;-34
2022/06/20 05:28:29;;;;;;;;;;;;;;;15.37;64.39;101488.66;5012858;28;19921;-32
2022/06/20 05:30:55;;;;;;;;;;;;;;;15.34;64.69;101493.63;5013056;28;19928;-32
2022/06/20 05:33:41;;;;;;;;;;;;;;;15.35;65.38;101498.03;5011639;28;20343;-33
2022/06/20 05:36:10;;;;;;;;;;;;;;;15.40;65.46;101500.13;5026294;28;19927;-33
2022/06/20 05:38:44;;;;;;;;;;;;;;;15.61;65.11;101499.25;5013678;28;20361;-33
2022/06/20 05:41:10;;;;;;;;;;;;;;;15.77;65.07;101501.66;5023738;28;19929;-35
2022/06/20 05:43:35;;;;;;;;;;;;;;;15.94;64.49;101508.44;5021288;28;20016;-34
2022/06/20 05:46:01;;;;;;;;;;;;;;;16.06;63.79;101505.16;5030358;28;19987;-37
2022/06/20 05:48:28;;;;;;;;;;;;;;;16.07;63.79;101498.69;5007983;28;19925;-35
2022/06/20 05:50:53;;;;;;;;;;;;;;;16.14;64.02;101504.97;5016277;28;19979;-33
2022/06/20 05:53:24;;;;;;;;;;;;;;;16.34;63.18;101514.03;5016934;28;20428;-32
2022/06/20 05:55:49;;;;;;;;;;;;;;;16.65;62.86;101515.38;5016408;28;20588;-34
2022/06/20 05:58:17;;;;;;;;;;;;;;;16.89;61.86;101525.69;5017477;28;20048;-33
2022/06/20 06:00:42;;;;;;;;;;;;;;;17.06;60.58;101525.28;5019398;28;19922;-33
2022/06/20 06:03:10;;;;;;;;;;;;;;;16.91;60.01;101519.25;5018805;28;19932;-33
2022/06/20 06:05:40;;;;;;;;;;;;;;;16.75;59.96;101526.72;5025731;28;19928;-33
2022/06/20 06:08:24;;;;;;;;;;;;;;;16.41;60.31;101525.78;5035596;28;20407;-34
2022/06/20 06:10:55;;;;;;;;;;;;;;;16.15;62.01;101531.94;5037065;28;19943;-31
2022/06/20 06:13:25;;;;;;;;;;;;;;;16.01;62.91;101530.22;5020884;28;20277;-32
2022/06/20 06:18:39;;;;;;;;;;;;;;;16.11;62.47;101541.50;5017147;28;19924;-33
2022/06/20 06:21:04;;;;;;;;;;;;;;;16.11;62.21;101557.81;5015817;28;20361;-34
2022/06/20 06:23:29;;;;;;;;;;;;;;;16.24;62.22;101557.03;5008082;28;19928;-35
2022/06/20 06:25:55;;;;;;;;;;;;;;;16.45;61.43;101551.47;4997375;28;19929;-34
2022/06/20 06:28:21;;;;;;;;;;;;;;;16.76;60.50;101555.56;5012329;28;20364;-31
2022/06/20 06:30:56;;;;;;;;;;;;;;;17.01;59.72;101553.13;5035119;28;19917;-34
2022/06/20 06:33:33;;;;;;;;;;;;;;;17.34;59.05;101552.31;5007415;28;20021;-33
2022/06/20 06:36:10;;;;;;;;;;;;;;;17.60;56.98;101556.91;5014905;28;19928;-32
2022/06/20 06:38:46;;;;;;;;;;;;;;;17.44;56.73;101555.44;5034066;28;20011;-33
2022/06/20 06:41:27;;;;;;;;;;;;;;;17.16;57.76;101555.63;5018523;28;19921;-34
2022/06/20 06:43:53;;;;;;;;;;;;;;;16.88;59.02;101558.56;5020009;28;19917;-34
2022/06/20 06:46:25;;;;;;;;;;;;;;;16.78;59.34;101561.66;5023170;28;19978;-32
2022/06/20 06:48:52;;;;;;;;;;;;;;;16.74;58.84;101556.81;5014048;28;19933;-33
2022/06/20 06:51:27;;;;;;;;;;;;;;;16.82;59.64;101565.63;5026971;28;19922;-34
2022/06/20 06:53:57;;;;;;;;;;;;;;;17.10;60.24;101572.81;5021445;28;19921;-31
2022/06/20 06:56:22;;;;;;;;;;;;;;;17.31;59.36;101567.16;5025155;28;19928;-31
2022/06/20 06:58:51;;;;;;;;;;;;;;;17.64;57.39;101579.94;5002594;28;19922;-34
2022/06/20 07:01:26;;;;;;;;;;;;;;;18.19;55.81;101577.75;5012395;28;20297;-32
2022/06/20 07:03:58;;;;;;;;;;;;;;;18.90;54.72;101573.25;5008183;28;19922;-33
2022/06/20 07:06:27;;;;;;;;;;;;;;;19.67;53.10;101573.13;5021236;28;19921;-35
2022/06/20 07:08:53;;;;;;;;;;;;;;;20.85;50.04;101579.31;5015034;28;20043;-33
2022/06/20 07:11:21;;;;;;;;;;;;;;;21.65;47.21;101573.44;5015903;28;19918;-33
2022/06/20 07:14:01;;;;;;;;;;;;;;;22.06;44.20;101575.16;5014382;28;19937;-32
2022/06/20 07:16:30;;;;;;;;;;;;;;;22.02;43.29;101584.13;5015774;28;19917;-33
2022/06/20 07:18:55;;;;;;;;;;;;;;;22.49;42.09;101584.91;5017340;28;19924;-33
2022/06/20 07:21:21;;;;;;;;;;;;;;;22.42;43.02;101581.44;5018236;28;19922;-32
2022/06/20 07:23:48;;;;;;;;;;;;;;;22.91;41.88;101587.34;5010182;28;20157;-34
2022/06/20 07:26:14;;;;;;;;;;;;;;;23.36;41.16;101583.78;5028365;28;20308;-36
2022/06/20 07:28:50;;;;;;;;;;;;;;;23.59;40.84;101585.53;5027163;28;19918;-37
2022/06/20 07:31:23;;;;;;;;;;;;;;;24.05;39.81;101590.88;5019784;28;19922;-35
2022/06/20 07:33:50;;;;;;;;;;;;;;;23.88;40.21;101591.75;5042114;28;19921;-36
2022/06/20 07:36:16;;;;;;;;;;;;;;;23.80;40.09;101589.44;5024500;28;19926;-37
2022/06/20 07:38:44;;;;;;;;;;;;;;;24.08;40.36;101591.19;5032319;28;19910;-34
2022/06/20 07:41:10;;;;;;;;;;;;;;;24.72;37.98;101584.28;5027720;28;19933;-35
2022/06/20 07:43:37;;;;;;;;;;;;;;;24.23;39.42;101593.31;5033602;28;19918;-34
2022/06/20 07:46:15;;;;;;;;;;;;;;;24.20;39.70;101601.28;5028617;28;19988;-35
2022/06/20 07:48:41;;;;;;;;;;;;;;;24.23;39.03;101614.50;5034979;28;19922;-32
2022/06/20 07:51:11;;;;;;;;;;;;;;;25.40;37.11;101596.53;5025485;28;19928;-34
2022/06/20 07:53:36;;;;;;;;;;;;;;;25.73;36.30;101610.31;5031871;28;19939;-35
2022/06/20 07:56:03;;;;;;;;;;;;;;;26.23;36.15;101603.47;5029571;28;19921;-31
2022/06/20 07:58:29;;;;;;;;;;;;;;;26.57;35.00;101608.59;5028414;28;19922;-35
2022/06/20 08:00:55;;;;;;;;;;;;;;;26.76;34.87;101604.25;5029324;28;19972;-37
2022/06/20 08:03:29;;;;;;;;;;;;;;;26.54;35.11;101607.22;5027662;28;19944;-34
2022/06/20 08:06:02;;;;;;;;;;;;;;;26.65;34.80;101606.16;5026073;28;19932;-34
2022/06/20 08:08:36;;;;;;;;;;;;;;;26.84;33.68;101603.69;5026044;28;20554;-37
2022/06/20 08:11:03;;;;;;;;;;;;;;;27.56;32.94;101601.00;5028522;28;19917;-36
2022/06/20 08:13:36;;;;;;;;;;;;;;;27.84;31.82;101601.56;5028796;28;20300;-36
2022/06/20 08:16:04;;;;;;;;;;;;;;;27.36;31.32;101608.22;5028520;28;19918;-34
2022/06/20 08:18:29;;;;;;;;;;;;;;;27.39;32.57;101609.59;5030914;28;19924;-37
2022/06/20 08:20:57;;;;;;;;;;;;;;;27.14;32.53;101604.84;5028105;28;19957;-34
2022/06/20 08:23:30;;;;;;;;;;;;;;;26.92;33.95;101605.94;5028344;28;19959;-34
2022/06/20 08:25:56;;;;;;;;;;;;;;;27.41;31.51;101607.41;5027556;28;19941;-37
2022/06/20 08:28:23;;;;;;;;;;;;;;;26.95;31.85;101603.72;5029654;28;19948;-36
2022/06/20 08:30:49;;;;;;;;;;;;;;;26.98;31.82;101606.75;5027424;28;20087;-36
2022/06/20 08:33:26;;;;;;;;;;;;;;;26.62;33.50;101600.31;5028988;28;19964;-35
2022/06/20 08:35:51;;;;;;;;;;;;;;;27.41;33.06;101612.06;5028602;28;19922;-37
2022/06/20 08:38:19;;;;;;;;;;;;;;;28.23;31.96;101616.41;5028675;28;19928;-35
2022/06/20 08:40:53;;;;;;;;;;;;;;;28.76;29.39;101624.22;5010265;28;20262;-35
2022/06/20 08:43:37;;;;;;;;;;;;;;;28.11;31.08;101618.66;5028811;28;19973;-38
2022/06/20 08:46:17;;;;;;;;;;;;;;;27.67;32.17;101624.78;5028582;28;19921;-35
2022/06/20 08:48:48;;;;;;;;;;;;;;;27.92;31.73;101628.66;5043534;28;19996;-35
2022/06/20 08:52:06;;;;;;;;;;;;;;;27.77;31.74;101627.53;5026720;28;19922;-37
2022/06/20 08:54:40;;;;;;;;;;;;;;;27.63;31.32;101631.16;4990598;28;19917;-35
2022/06/20 08:57:08;;;;;;;;;;;;;;;27.05;32.89;101628.63;5029059;28;19976;-35
2022/06/20 08:59:38;;;;;;;;;;;;;;;27.39;32.32;101641.97;5029829;28;19921;-35
2022/06/20 09:02:22;;;;;;;;;;;;;;;28.04;30.83;101643.00;5029749;28;19940;-39
2022/06/20 09:04:47;;;;;;;;;;;;;;;28.11;31.25;101645.50;5028521;28;19945;-38
2022/06/20 09:07:26;;;;;;;;;;;;;;;28.74;29.71;101650.56;5027791;28;19921;-35
2022/06/20 09:10:06;;;;;;;;;;;;;;;28.29;29.83;101644.06;5028137;28;19928;-35
2022/06/20 09:12:31;;;;;;;;;;;;;;;28.45;29.26;101652.06;5020711;28;19929;-41
2022/06/20 09:15:20;;;;;;;;;;;;;;;28.79;29.23;101654.13;5020299;28;20214;-33
2022/06/20 09:18:04;;;;;;;;;;;;;;;28.49;29.58;101659.78;5015793;28;19921;-33
2022/06/20 09:20:35;;;;;;;;;;;;;;;27.77;29.63;101659.91;5023915;28;19917;-35
2022/06/20 09:23:16;;;;;;;;;;;;;;;27.38;30.71;101663.22;5014908;28;19925;-36
2022/06/20 09:25:44;;;;;;;;;;;;;;;27.57;31.37;101660.75;5014132;28;19921;-35
2022/06/20 09:28:16;;;;;;;;;;;;;;;27.85;31.17;101664.09;5009599;28;20312;-33
2022/06/20 09:30:53;;;;;;;;;;;;;;;27.90;31.16;101666.84;5022730;28;19932;-42
2022/06/20 09:33:35;;;;;;;;;;;;;;;27.22;33.19;101665.13;5052582;28;19913;-39
2022/06/20 09:36:03;;;;;;;;;;;;;;;27.35;33.44;101659.06;5037747;28;19913;-37
2022/06/20 09:38:28;;;;;;;;;;;;;;;27.60;31.89;101660.19;5047352;28;19909;-42
2022/06/20 09:41:08;;;;;;;;;;;;;;;27.57;31.30;101652.47;5034955;28;19928;-38
2022/06/20 09:43:39;;;;;;;;;;;;;;;27.68;31.25;101654.09;5031597;28;19917;-35
2022/06/20 09:46:06;;;;;;;;;;;;;;;27.57;31.14;101663.53;5031961;28;19947;-38
2022/06/20 09:48:34;;;;;;;;;;;;;;;27.85;31.32;101672.38;5032545;28;19921;-39
2022/06/20 09:51:12;;;;;;;;;;;;;;;27.79;30.92;101686.19;5040728;28;19972;-36
2022/06/20 09:54:03;;;;;;;;;;;;;;;27.51;31.54;101681.19;5031052;28;19925;-36
2022/06/20 09:56:41;;;;;;;;;;;;;;;27.68;31.55;101684.53;5050262;28;19909;-39
2022/06/20 09:59:10;;;;;;;;;;;;;;;28.03;31.04;101696.69;5043668;28;19909;-40
2022/06/20 10:01:35;;;;;;;;;;;;;;;28.03;31.25;101696.69;5048424;28;19936;-39
2022/06/20 10:04:03;;;;;;;;;;;;;;;27.83;30.88;101694.78;5036407;28;19914;-40
2022/06/20 10:06:46;;;;;;;;;;;;;;;27.49;31.96;101694.47;5034781;28;19905;-39
2022/06/20 10:09:23;;;;;;;;;;;;;;;26.64;33.78;101697.53;5041733;28;20269;-39
2022/06/20 10:11:54;;;;;;;;;;;;;;;24.80;36.10;101691.19;5012518;28;19918;-37
2022/06/20 10:14:19;;;;;;;;;;;;;;;24.24;38.32;101699.50;5023302;28;20331;-40
2022/06/20 10:16:44;;;;;;;;;;;;;;;24.42;38.19;101700.31;5044412;28;19931;-37
2022/06/20 10:19:29;;;;;;;;;;;;;;;24.87;37.56;101696.53;5032706;28;19918;-39
2022/06/20 10:21:57;;;;;;;;;;;;;;;25.09;36.62;101700.09;5032298;28;19937;-37
2022/06/20 10:24:28;;;;;;;;;;;;;;;25.36;36.03;101704.81;5045727;28;19921;-37
2022/06/20 10:27:02;;;;;;;;;;;;;;;26.34;34.16;101704.53;5051983;28;20044;-39
2022/06/20 10:29:33;;;;;;;;;;;;;;;26.17;33.51;101706.59;5055185;28;20007;-39
2022/06/20 10:32:18;;;;;;;;;;;;;;;26.48;32.99;101708.44;5056247;28;19976;-38
2022/06/20 10:35:03;;;;;;;;;;;;;;;26.62;32.17;101721.81;5036485;28;19929;-38
2022/06/20 10:37:37;;;;;;;;;;;;;;;26.95;31.00;101714.22;5015733;28;20001;-37
2022/06/20 10:40:07;;;;;;;;;;;;;;;27.20;30.79;101721.78;5015585;28;19978;-39
2022/06/20 10:42:33;;;;;;;;;;;;;;;27.19;30.76;101718.19;5033432;28;19921;-40
2022/06/20 10:45:14;;;;;;;;;;;;;;;27.54;31.34;101722.97;5047738;28;19931;-36
2022/06/20 10:47:45;;;;;;;;;;;;;;;27.04;30.74;101718.09;5038699;28;19940;-39
2022/06/20 10:50:10;;;;;;;;;;;;;;;26.79;32.12;101727.16;5042155;28;19946;-39
2022/06/20 10:52:56;;;;;;;;;;;;;;;27.38;29.39;101729.56;5047908;28;19910;-38
2022/06/20 10:55:21;;;;;;;;;;;;;;;27.60;29.34;101736.81;5005589;28;19921;-41
2022/06/20 10:57:46;;;;;;;;;;;;;;;27.75;29.44;101731.25;5034005;28;19925;-35
2022/06/20 11:00:18;;;;;;;;;;;;;;;27.72;28.90;101726.28;5036600;28;19922;-39
2022/06/20 11:03:02;;;;;;;;;;;;;;;28.07;29.05;101731.03;5042757;28;19930;-39
2022/06/20 11:05:46;;;;;;;;;;;;;;;28.13;28.53;101738.19;5034728;28;19914;-40
2022/06/20 11:08:29;;;;;;;;;;;;;;;27.40;29.30;101737.59;5014973;28;19964;-36
2022/06/20 11:11:13;;;;;;;;;;;;;;;27.21;30.45;101729.81;5051290;28;19921;-38
2022/06/20 11:13:44;;;;;;;;;;;;;;;27.30;30.30;101733.69;5037282;28;19940;-38
2022/06/20 11:16:10;;;;;;;;;;;;;;;27.16;30.66;101732.53;5043060;28;20264;-38
2022/06/20 11:18:40;;;;;;;;;;;;;;;27.48;30.77;101740.63;5040704;28;19921;-38
2022/06/20 11:21:09;;;;;;;;;;;;;;;27.93;29.95;101740.97;5046709;28;19932;-38
2022/06/20 11:23:37;;;;;;;;;;;;;;;27.96;30.76;101748.72;5025453;28;19937;-38
2022/06/20 11:26:08;;;;;;;;;;;;;;;27.01;31.23;101752.63;5032869;28;19960;-35
2022/06/20 11:29:06;;;;;;;;;;;;;;;26.30;32.36;101750.28;4992115;28;20013;-35
2022/06/20 11:31:43;;;;;;;;;;;;;;;25.34;34.82;101753.84;5013948;28;20008;-35
2022/06/20 11:34:16;;;;;;;;;;;;;;;24.62;36.31;101754.81;5006405;28;20357;-35
2022/06/20 11:36:47;;;;;;;;;;;;;;;23.86;37.79;101747.88;5008972;28;19917;-36
2022/06/20 11:39:25;;;;;;;;;;;;;;;23.76;38.75;101749.63;5025766;28;20552;-36
2022/06/20 11:41:51;;;;;;;;;;;;;;;23.58;39.76;101758.88;5026980;28;19917;-36
2022/06/20 11:44:37;;;;;;;;;;;;;;;23.75;39.33;101757.03;5023803;28;19940;-35
2022/06/20 11:47:03;;;;;;;;;;;;;;;23.35;39.74;101771.63;5023503;28;19918;-35
2022/06/20 11:49:28;;;;;;;;;;;;;;;23.03;40.21;101771.25;5025163;28;19953;-33
2022/06/20 11:51:54;;;;;;;;;;;;;;;23.11;40.85;101762.63;5024782;28;20015;-37
2022/06/20 11:54:39;;;;;;;;;;;;;;;23.41;39.98;101762.41;5024579;28;19918;-37
2022/06/20 11:57:07;;;;;;;;;;;;;;;23.42;39.49;101766.00;5025146;28;19968;-34
2022/06/20 11:59:39;;;;;;;;;;;;;;;23.02;40.97;101766.03;5024623;28;20221;-34
2022/06/20 12:02:05;;;;;;;;;;;;;;;22.26;43.05;101771.41;5024380;28;19944;-34
2022/06/20 12:04:36;;;;;;;;;;;;;;;21.85;42.98;101764.88;5023269;28;19918;-37
2022/06/20 12:07:09;;;;;;;;;;;;;;;22.00;43.87;101770.75;5024289;28;19944;-34
2022/06/20 12:09:40;;;;;;;;;;;;;;;22.73;42.25;101765.94;5024573;28;20025;-37
2022/06/20 12:12:12;;;;;;;;;;;;;;;23.56;39.49;101767.34;5036779;28;19948;-34
2022/06/20 12:14:37;;;;;;;;;;;;;;;23.53;39.13;101775.25;5044185;28;19917;-35
2022/06/20 12:17:18;;;;;;;;;;;;;;;23.35;39.09;101779.03;5045300;28;19942;-35
2022/06/20 12:25:30;;;;;;;;;;;;;;;23.20;41.40;101776.84;5043287;28;19936;-34
2022/06/20 12:27:55;;;;;;;;;;;;;;;23.72;40.92;101779.50;5030039;28;19925;-36
2022/06/20 12:30:21;;;;;;;;;;;;;;;24.15;39.32;101767.03;5023578;28;19933;-36
2022/06/20 12:32:47;;;;;;;;;;;;;;;23.88;39.87;101770.47;5024431;28;19948;-35
2022/06/20 12:35:12;;;;;;;;;;;;;;;23.44;41.42;101772.91;5019417;28;20126;-35
2022/06/20 12:37:39;;;;;;;;;;;;;;;22.99;42.11;101770.09;5025406;28;19928;-36
2022/06/20 12:40:08;;;;;;;;;;;;;;;22.62;41.79;101769.50;5040709;28;19928;-35
2022/06/20 12:42:46;;;;;;;;;;;;;;;21.96;43.26;101765.97;5031391;28;20412;-36
2022/06/20 12:45:30;;;;;;;;;;;;;;;21.96;44.36;101761.34;5020313;28;19928;-33
2022/06/20 12:47:56;;;;;;;;;;;;;;;22.60;42.47;101766.19;5023147;28;19957;-33
2022/06/20 12:50:26;;;;;;;;;;;;;;;23.22;39.60;101763.66;5031865;28;19921;-36
2022/06/20 12:53:08;;;;;;;;;;;;;;;23.69;39.20;101763.47;5040260;28;20124;-35
2022/06/20 12:55:43;;;;;;;;;;;;;;;23.71;38.15;101769.56;5028554;28;20084;-38
2022/06/20 12:58:20;;;;;;;;;;;;;;;23.52;36.88;101771.69;5014798;28;19922;-34
2022/06/20 13:00:55;;;;;;;;;;;;;;;23.70;36.17;101770.66;5020704;28;19940;-35
2022/06/20 13:03:24;;;;;;;;;;;;;;;23.61;36.65;101766.63;5028258;28;19944;-39
2022/06/20 13:05:54;;;;;;;;;;;;;;;23.14;37.50;101775.03;5033179;28;20005;-38
2022/06/20 13:08:38;;;;;;;;;;;;;;;22.83;39.33;101776.28;5020648;28;19917;-39